Terminal Aerodrome Forecast
Issued by NWS Duluth, MN

Home | Current Version | Previous Version | Text Only | Print | Product List | Glossary On
Versions: 1 2 3 4 5 6 7 8 9 10 11 12 13 14 15 16 17 18 19 20 21 22 23 24 25 26 27 28
649
FTUS43 KDLH 271128
TAFDLH
TAF
KDLH 271128Z 2712/2812 27006KT P6SM SKC
     FM271500 25007KT P6SM SCT200
     FM271900 23012G18KT P6SM SCT100
     FM280200 19008KT P6SM BKN100
     FM280600 19010G15KT P6SM VCSH BKN050=

USA.gov is the U.S. government's official web portal to all federal, state and local government web resources and services.